createdAt,value
2022-09-21T00:00:39.682Z,0.048720002
2022-09-21T00:01:34.465Z,0.105560005
2022-09-21T00:02:33.713Z,0.154280007
2022-09-21T00:03:32.914Z,0.056840003
2022-09-21T00:04:31.231Z,0.138040006
2022-09-21T00:06:28.284Z,0.073080003
2022-09-21T00:07:28.484Z,0.064960003
2022-09-21T00:08:30.929Z,0.056840003
2022-09-21T00:09:26.122Z,0.040600002
2022-09-21T00:11:20.859Z,0.081200004
2022-09-21T00:12:21.677Z,0.138040006
2022-09-21T00:13:14.338Z,0.081200004
2022-09-21T00:14:15.447Z,0.154280007
2022-09-21T00:15:11.668Z,0.056840003
2022-09-21T00:17:06.626Z,0.129920006
2022-09-21T00:18:11.189Z,0.073080003
2022-09-21T00:18:38.829Z,0.073080003
2022-09-21T00:21:09.068Z,0.073080003
2022-09-21T00:22:10.284Z,0.089320004
2022-09-21T00:23:09.283Z,0.064960003
2022-09-21T00:24:03.897Z,0.097440004
2022-09-21T00:25:03.173Z,0.113680005
2022-09-21T00:27:03.120Z,0.081200004
2022-09-21T00:28:01.627Z,0.089320004
2022-09-21T00:29:03.086Z,0.097440004
2022-09-21T00:30:10.867Z,0.024360001
2022-09-21T00:31:09.747Z,0.113680005
2022-09-21T00:32:07.328Z,0.097440004
2022-09-21T00:33:07.027Z,0.129920006
2022-09-21T00:34:02.332Z,0.064960003
2022-09-21T00:35:16.487Z,6.828920364
2022-09-21T00:38:16.782Z,0.235480011
2022-09-21T00:39:21.091Z,0.097440004
2022-09-21T00:41:20.624Z,0.105560005
2022-09-21T00:42:18.185Z,0.032480001
2022-09-21T00:43:20.509Z,0.113680005
2022-09-21T00:44:14.866Z,0.113680005
2022-09-21T00:45:11.209Z,0.146160007
2022-09-21T00:46:09.891Z,0.064960003
2022-09-21T00:47:04.453Z,0.097440004
2022-09-21T00:48:04.930Z,0.121800005
2022-09-21T00:49:07.952Z,0.048720002
2022-09-21T00:50:08.054Z,0.105560005
2022-09-21T00:51:06.157Z,0.048720002
2022-09-21T00:52:07.982Z,0.113680005
2022-09-21T00:53:06.047Z,0.073080003
2022-09-21T00:54:12.013Z,0.056840003
2022-09-21T00:55:09.493Z,0.032480001
2022-09-21T00:57:04.723Z,0.056840003
2022-09-21T00:58:06.233Z,0.146160007
2022-09-21T00:59:00.658Z,0.056840003
2022-09-21T00:59:58.880Z,0.097440004
2022-09-21T01:01:54.457Z,0.081200004
2022-09-21T01:02:48.808Z,0.073080003
2022-09-21T01:03:51.190Z,0
2022-09-21T01:04:43.140Z,0.097440004
2022-09-21T01:06:41.053Z,0.081200004
2022-09-21T01:07:41.796Z,0.105560005
2022-09-21T01:08:38.320Z,0.121800005
2022-09-21T01:09:40.271Z,0.097440004
2022-09-21T01:11:31.873Z,0.097440004
2022-09-21T01:12:39.118Z,0.105560005
2022-09-21T01:13:33.524Z,0.089320004
2022-09-21T01:15:13.069Z,0.113680005
2022-09-21T01:16:09.435Z,0.178640008
2022-09-21T01:17:10.958Z,-0.016240001
2022-09-21T01:18:08.178Z,0.081200004
2022-09-21T01:19:10.014Z,0.073080003
2022-09-21T01:22:43.499Z,0.146160007
2022-09-21T01:23:41.021Z,0.097440004
2022-09-21T01:24:44.796Z,0.040600002
2022-09-21T01:26:44.267Z,0.121800005
2022-09-21T01:27:45.774Z,0.064960003
2022-09-21T01:28:41.208Z,0.129920006
2022-09-21T01:29:40.071Z,0.097440004
2022-09-21T01:30:37.553Z,0.032480001
2022-09-21T01:31:37.753Z,0.089320004
2022-09-21T01:32:35.770Z,0.032480001
2022-09-21T01:33:39.691Z,0.00812
2022-09-21T01:34:35.171Z,0.081200004
2022-09-21T01:35:34.057Z,0.105560005
2022-09-21T01:36:28.361Z,0.073080003
2022-09-21T01:37:26.088Z,0.097440004
2022-09-21T01:38:21.491Z,0.073080003
2022-09-21T01:39:20.256Z,0.162400007
2022-09-21T01:40:13.698Z,0.024360001
2022-09-21T01:41:13.131Z,0.081200004
2022-09-21T01:42:10.793Z,0.105560005
2022-09-21T01:43:05.045Z,0.121800005
2022-09-21T01:44:06.629Z,0.081200004
2022-09-21T01:45:01.305Z,0.170520008
2022-09-21T01:46:54.241Z,0.073080003
2022-09-21T01:47:56.542Z,0.105560005
2022-09-21T01:48:47.408Z,0.121800005
2022-09-21T01:49:47.477Z,0.129920006
2022-09-21T01:50:44.640Z,0.032480001
2022-09-21T01:51:45.074Z,0.032480001
2022-09-21T01:52:41.387Z,0.081200004
2022-09-21T01:53:41.808Z,0.056840003
2022-09-21T01:54:47.023Z,0.097440004
2022-09-21T01:56:38.353Z,0.048720002
2022-09-21T01:57:33.045Z,0.056840003
2022-09-21T01:58:39.994Z,0.073080003
2022-09-21T01:59:34.258Z,0.138040006
2022-09-21T02:01:32.479Z,0.089320004
2022-09-21T02:02:37.788Z,0.121800005
2022-09-21T02:03:36.337Z,0.113680005
2022-09-21T02:04:27.218Z,0.064960003
2022-09-21T02:05:28.471Z,0.056840003
2022-09-21T02:06:26.724Z,0.097440004
2022-09-21T02:07:23.994Z,0.105560005
2022-09-21T02:08:18.413Z,0.146160007
2022-09-21T02:09:27.815Z,0.040600002
2022-09-21T02:11:59.165Z,0.024360001
2022-09-21T02:12:58.157Z,0.129920006
2022-09-21T02:13:59.088Z,0.081200004
2022-09-21T02:14:55.604Z,0.121800005
2022-09-21T02:15:56.962Z,0.024360001
2022-09-21T02:16:54.088Z,0.064960003
2022-09-21T02:17:55.309Z,0.040600002
2022-09-21T02:19:03.062Z,0.064960003
2022-09-21T02:20:03.555Z,0.138040006
2022-09-21T02:22:04.983Z,0.129920006
2022-09-21T02:23:01.580Z,0.105560005
2022-09-21T02:24:04.863Z,0.089320004
2022-09-21T02:24:59.513Z,0.146160007
2022-09-21T02:26:59.587Z,-0.016240001
2022-09-21T02:28:01.781Z,0.089320004
2022-09-21T02:28:59.707Z,0.048720002
2022-09-21T02:30:01.541Z,0.105560005
2022-09-21T02:30:59.737Z,0.154280007
2022-09-21T02:32:08.099Z,0.048720002
2022-09-21T02:33:10.185Z,0.056840003
2022-09-21T02:34:13.431Z,0.073080003
2022-09-21T02:35:10.618Z,0.105560005
2022-09-21T02:37:08.312Z,0.040600002
2022-09-21T02:38:10.360Z,0.040600002
2022-09-21T02:39:10.572Z,0.064960003
2022-09-21T02:40:12.819Z,0.162400007
2022-09-21T02:42:10.798Z,0.064960003
2022-09-21T02:43:13.621Z,0.056840003
2022-09-21T02:44:07.461Z,0.097440004
2022-09-21T02:45:11.467Z,0.081200004
2022-09-21T02:47:08.015Z,0.081200004
2022-09-21T02:49:27.816Z,0.081200004
2022-09-21T02:51:22.436Z,0.097440004
2022-09-21T02:52:18.488Z,0.081200004
2022-09-21T02:53:19.324Z,0.097440004
2022-09-21T02:54:18.811Z,0.048720002
2022-09-21T02:56:18.687Z,0.081200004
2022-09-21T02:57:19.143Z,0.024360001
2022-09-21T02:58:15.416Z,0.097440004
2022-09-21T02:59:17.665Z,0.113680005
2022-09-21T03:01:19.442Z,0.081200004
2022-09-21T03:02:13.872Z,0.040600002
2022-09-21T03:03:12.810Z,0
2022-09-21T03:04:07.724Z,0.073080003
2022-09-21T03:05:07.412Z,0.024360001
2022-09-21T03:07:08.563Z,0.121800005
2022-09-21T03:08:03.864Z,0.00812
2022-09-21T03:09:05.999Z,0.040600002
2022-09-21T03:10:02.210Z,0.081200004
2022-09-21T03:11:59.184Z,0.032480001
2022-09-21T03:12:58.786Z,0.056840003
2022-09-21T03:13:54.150Z,0.016240001
2022-09-21T03:14:56.139Z,0.081200004
2022-09-21T03:16:56.476Z,0.056840003
2022-09-21T03:17:50.831Z,0.073080003
2022-09-21T03:18:52.014Z,0.089320004
2022-09-21T03:19:51.205Z,0.064960003
2022-09-21T03:21:53.392Z,0.081200004
2022-09-21T03:22:52.044Z,0.105560005
2022-09-21T03:23:58.526Z,0.056840003
2022-09-21T03:26:27.635Z,0.097440004
2022-09-21T03:27:26.929Z,0.113680005
2022-09-21T03:28:28.076Z,0.089320004
2022-09-21T03:29:25.264Z,0.194880009
2022-09-21T03:31:25.958Z,0.121800005
2022-09-21T03:32:26.360Z,0.089320004
2022-09-21T03:33:28.416Z,0.089320004
2022-09-21T03:34:26.115Z,0.138040006
2022-09-21T03:35:26.533Z,0.097440004
2022-09-21T03:36:29.749Z,0.064960003
2022-09-21T03:37:32.777Z,0.097440004
2022-09-21T03:38:36.223Z,0.081200004
2022-09-21T03:39:41.302Z,0.073080003
2022-09-21T03:40:39.983Z,0.064960003
2022-09-21T03:41:44.207Z,0.040600002
2022-09-21T03:42:43.243Z,0.113680005
2022-09-21T03:43:41.385Z,0.081200004
2022-09-21T03:44:47.186Z,0.129920006
2022-09-21T03:46:48.199Z,0.138040006
2022-09-21T03:47:43.042Z,0.064960003
2022-09-21T03:48:46.416Z,0.105560005
2022-09-21T03:49:43.640Z,0.081200004
2022-09-21T03:50:46.949Z,0.056840003
2022-09-21T03:51:41.459Z,0.113680005
2022-09-21T03:52:45.199Z,0.121800005
2022-09-21T03:53:38.992Z,0.081200004
2022-09-21T03:54:43.881Z,0.081200004
2022-09-21T03:56:41.219Z,0.097440004
2022-09-21T03:57:42.690Z,0.081200004
2022-09-21T03:58:44.979Z,0.056840003
2022-09-21T03:59:42.896Z,0.170520008
2022-09-21T04:00:52.562Z,0.048720002
2022-09-21T04:01:50.925Z,0.073080003
2022-09-21T04:02:53.286Z,0.073080003
2022-09-21T04:03:53.782Z,0.064960003
2022-09-21T04:04:55.331Z,0.138040006
2022-09-21T04:05:55.416Z,0.064960003
2022-09-21T04:06:58.933Z,0.113680005
2022-09-21T04:07:55.310Z,0.056840003
2022-09-21T04:08:55.029Z,0.105560005
2022-09-21T04:09:59.344Z,0.048720002
2022-09-21T04:11:56.652Z,0.146160007
2022-09-21T04:12:52.052Z,0.113680005
2022-09-21T04:13:59.331Z,0.097440004
2022-09-21T04:14:55.284Z,0.113680005
2022-09-21T04:17:04.382Z,0.113680005
2022-09-21T04:18:02.945Z,0.113680005
2022-09-21T04:21:34.270Z,0.113680005
2022-09-21T04:22:43.332Z,0.105560005
2022-09-21T04:23:40.499Z,0.129920006
2022-09-21T04:24:37.731Z,0.097440004
2022-09-21T04:25:43.795Z,0.138040006
2022-09-21T04:26:40.198Z,0.170520008
2022-09-21T04:27:36.658Z,0.170520008
2022-09-21T04:28:39.585Z,0.162400007
2022-09-21T04:29:41.661Z,0.064960003
2022-09-21T04:31:39.616Z,0.073080003
2022-09-21T04:32:40.310Z,0.178640008
2022-09-21T04:33:36.703Z,0.178640008
2022-09-21T04:34:36.950Z,0.097440004
2022-09-21T04:35:34.941Z,0.146160007
2022-09-21T04:36:38.736Z,0.064960003
2022-09-21T04:37:35.003Z,0.170520008
2022-09-21T04:38:37.503Z,0.154280007
2022-09-21T04:39:33.124Z,0.024360001
2022-09-21T04:41:31.961Z,0.056840003
2022-09-21T04:42:31.546Z,0.105560005
2022-09-21T04:43:28.019Z,0.154280007
2022-09-21T04:44:25.623Z,0.073080003
2022-09-21T04:45:28.260Z,0.073080003
2022-09-21T04:46:30.593Z,0.048720002
2022-09-21T04:47:27.851Z,0.113680005
2022-09-21T04:48:30.429Z,0.056840003
2022-09-21T04:49:27.055Z,0.032480001
2022-09-21T04:50:33.423Z,0.097440004
2022-09-21T04:51:36.708Z,0.105560005
2022-09-21T04:52:34.028Z,0.105560005
2022-09-21T04:53:35.984Z,0.081200004
2022-09-21T04:54:33.906Z,0.129920006
2022-09-21T04:55:32.522Z,0.024360001
2022-09-21T04:56:33.444Z,0.097440004
2022-09-21T04:57:30.159Z,0.056840003
2022-09-21T04:58:35.601Z,0.089320004
2022-09-21T04:59:31.031Z,0.146160007
2022-09-21T05:01:29.213Z,0.097440004
2022-09-21T05:02:35.423Z,0.040600002
2022-09-21T05:03:30.863Z,0.113680005
2022-09-21T05:04:32.720Z,0.178640008
2022-09-21T05:06:29.322Z,0.089320004
2022-09-21T05:07:24.921Z,0.056840003
2022-09-21T05:09:12.147Z,-0.089320004
2022-09-21T05:09:33.539Z,0.097440004
2022-09-21T05:11:36.579Z,0.040600002
2022-09-21T05:12:40.694Z,0.073080003
2022-09-21T05:13:33.004Z,0.194880009
2022-09-21T05:14:33.805Z,0.138040006
2022-09-21T05:15:30.008Z,0.097440004
2022-09-21T05:16:35.251Z,0.089320004
2022-09-21T05:17:31.025Z,0.113680005
2022-09-21T05:18:33.624Z,0.105560005
2022-09-21T05:19:28.951Z,0.097440004
2022-09-21T05:20:31.828Z,0.097440004
2022-09-21T05:21:34.113Z,0.089320004
2022-09-21T05:22:36.685Z,0.113680005
2022-09-21T05:23:36.764Z,0.170520008
2022-09-21T05:24:31.689Z,0.105560005
2022-09-21T05:25:40.158Z,0.129920006
2022-09-21T05:26:33.659Z,0.081200004
2022-09-21T05:27:36.847Z,0.186760008
2022-09-21T05:28:30.292Z,0.178640008
2022-09-21T05:29:34.878Z,0.178640008
2022-09-21T05:31:32.612Z,0.113680005
2022-09-21T05:32:25.598Z,0.186760008
2022-09-21T05:33:27.815Z,0.170520008
2022-09-21T05:34:31.904Z,0.138040006
2022-09-21T05:34:36.627Z,0.138040006
2022-09-21T05:36:26.987Z,0.162400007
2022-09-21T05:37:22.472Z,0.170520008
2022-09-21T05:38:22.274Z,0.235480011
2022-09-21T05:39:20.439Z,0.162400007
2022-09-21T05:41:16.692Z,0.170520008
2022-09-21T05:42:17.929Z,0.154280007
2022-09-21T05:43:13.017Z,0.292320013
2022-09-21T05:44:17.163Z,0.235480011
2022-09-21T05:45:11.320Z,0.203000009
2022-09-21T05:46:19.206Z,0.203000009
2022-09-21T05:47:22.796Z,0.178640008
2022-09-21T05:48:18.655Z,0.300440013
2022-09-21T05:49:21.098Z,0.292320013
2022-09-21T05:50:16.202Z,0.243600011
2022-09-21T05:51:19.248Z,0.154280007
2022-09-21T05:52:19.350Z,0.154280007
2022-09-21T05:53:54.460Z,0.276080012
2022-09-21T05:54:57.940Z,0.373520017
2022-09-21T05:57:30.794Z,0.292320013
2022-09-21T05:58:26.766Z,0.211120009
2022-09-21T05:59:27.122Z,0.316680014
2022-09-21T06:00:30.010Z,0.276080012
2022-09-21T06:01:33.786Z,0.276080012
2022-09-21T06:02:27.700Z,0.503440022
2022-09-21T06:03:32.521Z,0.462840021
2022-09-21T06:04:28.441Z,0.487200022
2022-09-21T06:06:30.868Z,0.479080021
2022-09-21T06:07:28.877Z,0.397880018
2022-09-21T06:08:30.164Z,0.381640017
2022-09-21T06:09:26.894Z,0.308560014
2022-09-21T06:10:30.295Z,0.43848002
2022-09-21T06:11:23.730Z,0.535920024
2022-09-21T06:12:25.226Z,0.422240019
2022-09-21T06:13:23.272Z,0.251720011
2022-09-21T06:14:24.939Z,0.519680023
2022-09-21T06:15:25.191Z,0.406000018
2022-09-21T06:16:26.216Z,0.495320022
2022-09-21T06:17:22.030Z,0.503440022
2022-09-21T06:18:22.628Z,0.45472002
2022-09-21T06:19:19.137Z,0.519680023
2022-09-21T06:20:19.447Z,0.495320022
2022-09-21T06:21:17.954Z,0.527800024
2022-09-21T06:22:18.661Z,0.503440022
2022-09-21T06:23:17.672Z,0.519680023
2022-09-21T06:24:20.415Z,0.633360028
2022-09-21T06:26:17.454Z,0.544040024
2022-09-21T06:27:10.975Z,0.584640026
2022-09-21T06:28:13.055Z,0.479080021
2022-09-21T06:29:15.847Z,0.641480029
2022-09-21T06:30:10.027Z,0.779520035
2022-09-21T06:32:06.588Z,0.641480029
2022-09-21T06:33:08.116Z,0.584640026
2022-09-21T06:34:03.833Z,0.617120028
2022-09-21T06:35:08.184Z,0.747040033
2022-09-21T06:37:06.470Z,0.836360037
2022-09-21T06:38:00.978Z,0.836360037
2022-09-21T06:39:01.446Z,0.803880036
2022-09-21T06:39:57.923Z,0.982520044
2022-09-21T06:41:54.865Z,1.039360046
2022-09-21T06:42:53.000Z,0.633360028
2022-09-21T06:43:53.878Z,0.852600038
2022-09-21T06:46:57.027Z,0.730800033
2022-09-21T06:47:55.172Z,0.998760045
2022-09-21T06:48:54.056Z,0.755160034
2022-09-21T06:49:53.981Z,0.836360037
2022-09-21T06:51:52.200Z,1.079960108
2022-09-21T06:52:47.428Z,0.844480038
2022-09-21T06:53:48.297Z,1.088080049
2022-09-21T06:54:43.823Z,1.071840048
2022-09-21T06:55:44.132Z,0.941920042
2022-09-21T06:56:39.460Z,0.779520035
2022-09-21T06:57:38.930Z,0.787640035
2022-09-21T06:58:38.045Z,0.828240037
2022-09-21T06:59:33.517Z,1.039360046
2022-09-21T07:01:29.745Z,1.193639994
2022-09-21T07:02:32.403Z,1.136800051
2022-09-21T07:03:26.253Z,0.933800042
2022-09-21T07:04:28.948Z,1.136800051
2022-09-21T07:06:22.615Z,1.023120046
2022-09-21T07:07:18.063Z,0.820120037
2022-09-21T07:10:20.631Z,1.096199989
2022-09-21T07:11:13.448Z,1.112440109
2022-09-21T07:12:13.909Z,1.388520002
2022-09-21T07:13:09.871Z,1.291079998
2022-09-21T07:14:10.222Z,1.250480056
2022-09-21T07:15:05.711Z,0.974400043
2022-09-21T07:16:06.885Z,1.299200058
2022-09-21T07:17:02.980Z,1.502200127
2022-09-21T07:18:06.260Z,1.209880114
2022-09-21T07:18:07.457Z,1.209880114
2022-09-21T07:19:11.082Z,1.039360046
2022-09-21T07:19:13.572Z,1.039360046
2022-09-21T07:20:04.842Z,1.250480056
2022-09-21T07:22:00.953Z,1.615880013
2022-09-21T07:22:58.095Z,1.534680128
2022-09-21T07:24:01.753Z,1.753920078
2022-09-21T07:24:56.105Z,1.55092001
2022-09-21T07:26:52.587Z,1.274840117
2022-09-21T07:27:55.183Z,1.55092001
2022-09-21T07:28:49.542Z,1.908200026
2022-09-21T07:29:50.382Z,1.640240073
2022-09-21T07:31:47.003Z,1.412880063
2022-09-21T07:32:42.813Z,1.705200076
2022-09-21T07:33:43.789Z,1.364160061
2022-09-21T07:34:40.111Z,1.664600134
2022-09-21T07:35:37.789Z,1.56716013
2022-09-21T07:36:41.556Z,1.583400011
2022-09-21T07:37:34.965Z,1.55092001
2022-09-21T07:38:38.301Z,1.469720125
2022-09-21T07:39:31.631Z,1.916320086
2022-09-21T07:42:21.346Z,-0.089320004
2022-09-21T07:43:03.814Z,1.713320017
2022-09-21T07:44:02.993Z,1.591520071
2022-09-21T07:45:04.387Z,1.77828002
2022-09-21T07:46:04.450Z,1.891960144
2022-09-21T07:47:01.031Z,1.632120132
2022-09-21T07:48:00.503Z,2.127439976
2022-09-21T07:49:01.946Z,1.843240023
2022-09-21T07:49:59.086Z,2.119320154
2022-09-21T07:52:04.403Z,2.257359982
2022-09-21T07:52:09.409Z,2.257359982
2022-09-21T07:52:11.245Z,2.257359982
2022-09-21T07:53:05.266Z,2.362920046
2022-09-21T07:54:00.564Z,2.135560036
2022-09-21T07:55:00.544Z,2.663360119
2022-09-21T07:56:58.488Z,2.679600239
2022-09-21T07:58:00.775Z,3.215520144
2022-09-21T07:58:58.929Z,3.710840225
2022-09-21T08:00:00.187Z,3.564680099
2022-09-21T08:00:59.401Z,3.402280092
2022-09-21T08:02:03.726Z,4.189920425
2022-09-21T08:02:58.898Z,3.889480114
2022-09-21T08:04:03.852Z,5.481000423
2022-09-21T08:05:00.241Z,6.699000359
2022-09-21T08:06:05.934Z,6.910120487
2022-09-21T08:07:04.141Z,7.161840439
2022-09-21T08:08:02.539Z,8.152480125
2022-09-21T08:09:08.504Z,8.111880302
2022-09-21T08:10:04.979Z,5.992560387
2022-09-21T08:12:06.727Z,8.144360542
2022-09-21T08:13:07.759Z,6.357960224
2022-09-21T08:14:08.606Z,6.366080284
2022-09-21T08:15:20.381Z,5.862640381
2022-09-21T08:15:36.842Z,5.862640381
2022-09-21T08:15:44.112Z,5.862640381
2022-09-21T08:17:02.601Z,-0.073080003
2022-09-21T08:17:42.437Z,7.900760174
2022-09-21T08:18:41.483Z,6.96696043
2022-09-21T08:19:41.769Z,8.785840034
2022-09-21T08:20:38.200Z,10.27992058
2022-09-21T08:21:39.540Z,11.42484093
2022-09-21T08:22:36.189Z,11.81460094
2022-09-21T08:23:37.864Z,11.68468094
2022-09-21T08:24:34.554Z,11.98512077
2022-09-21T08:26:34.050Z,12.19624043
2022-09-21T08:27:38.452Z,11.5466404
2022-09-21T08:28:32.882Z,11.60348034
2022-09-21T08:29:37.049Z,11.53852081
2022-09-21T08:30:31.318Z,11.01884079
2022-09-21T08:31:33.061Z,11.08380032
2022-09-21T08:32:49.860Z,10.25556087
2022-09-21T08:32:50.609Z,10.25556087
2022-09-21T08:32:50.970Z,10.25556087
2022-09-21T08:33:32.172Z,13.04072094
2022-09-21T08:34:30.134Z,11.18124008
2022-09-21T08:35:30.879Z,9.662800789
2022-09-21T08:36:27.580Z,9.817080498
2022-09-21T08:37:29.174Z,9.41108036
2022-09-21T08:38:25.785Z,9.175600052
2022-09-21T08:39:27.397Z,9.646560669
2022-09-21T08:40:24.675Z,9.646560669
2022-09-21T08:41:28.298Z,9.597840309
2022-09-21T08:42:22.774Z,10.87268066
2022-09-21T08:46:51.952Z,-0.073080003
2022-09-21T09:01:19.973Z,-0.064960003
2022-09-21T09:02:00.020Z,13.19500065
2022-09-21T09:02:58.094Z,10.95388031
2022-09-21T09:03:59.580Z,10.84020042
2022-09-21T09:04:05.577Z,10.84020042
2022-09-21T09:04:56.905Z,11.85520077
2022-09-21T09:06:50.169Z,10.49104023
2022-09-21T09:07:50.409Z,11.12440014
2022-09-21T09:08:45.633Z,10.60472012
2022-09-21T09:09:45.738Z,10.46668053
2022-09-21T09:11:41.243Z,11.77400017
2022-09-21T09:12:36.769Z,12.84584045
2022-09-21T09:13:35.890Z,11.98512077
2022-09-21T09:14:34.878Z,11.92828083
2022-09-21T09:16:33.028Z,10.84832001
2022-09-21T09:17:25.628Z,10.75088024
2022-09-21T09:18:28.415Z,11.59536076
2022-09-21T09:19:21.254Z,11.22184086
2022-09-21T09:21:48.795Z,-0.064960003
2022-09-21T09:21:55.319Z,16.98704147
2022-09-21T09:22:56.915Z,11.92016029
2022-09-21T09:23:53.468Z,12.30992031
2022-09-21T09:24:54.991Z,12.35052013
2022-09-21T09:25:51.614Z,12.39924049
2022-09-21T09:27:38.936Z,-0.064960003
2022-09-21T09:28:19.714Z,13.56852055
2022-09-21T09:29:18.710Z,11.87144089
2022-09-21T09:31:12.453Z,-0.056840003
2022-09-21T09:31:53.628Z,15.71220112
2022-09-21T09:32:53.751Z,13.50356102
2022-09-21T09:33:54.951Z,13.91768074
2022-09-21T09:34:52.143Z,14.37240028
2022-09-21T09:35:53.733Z,14.17752075
2022-09-21T09:36:59.478Z,15.16004086
2022-09-21T09:36:59.740Z,15.16004086
2022-09-21T09:37:52.997Z,15.7203207
2022-09-21T09:38:51.108Z,15.50108051
2022-09-21T09:39:54.851Z,14.79464054
2022-09-21T09:40:50.257Z,15.1925211
2022-09-21T09:41:51.574Z,15.12756062
2022-09-21T09:42:48.752Z,15.64724064
2022-09-21T09:43:50.964Z,15.22500038
2022-09-21T09:44:48.236Z,15.54168034
2022-09-21T09:46:47.622Z,15.3224411
2022-09-21T09:47:49.567Z,13.75528049
2022-09-21T09:48:47.174Z,4.45788002
2022-09-21T09:49:46.063Z,4.141200066
2022-09-21T09:50:44.384Z,3.783920288
2022-09-21T09:51:43.164Z,3.889480114
2022-09-21T09:52:38.558Z,4.417280197
2022-09-21T09:53:38.580Z,3.369800091
2022-09-21T09:54:33.935Z,3.020640135
2022-09-21T09:55:32.115Z,3.215520144
2022-09-21T09:56:34.106Z,3.507840157
2022-09-21T09:57:27.141Z,3.377920151
2022-09-21T09:58:27.009Z,3.572800159
2022-09-21T09:59:22.488Z,3.572800159
2022-09-21T10:01:22.349Z,3.727080107
2022-09-21T10:02:15.129Z,3.824520111
2022-09-21T10:03:17.264Z,3.824520111
2022-09-21T10:04:09.717Z,3.451000214
2022-09-21T10:05:07.864Z,3.873240232
2022-09-21T10:06:07.319Z,3.832640171
2022-09-21T10:07:02.262Z,3.848880291
2022-09-21T10:08:04.972Z,4.758320332
2022-09-21T10:08:57.402Z,3.832640171
2022-09-21T10:09:59.975Z,4.173680305
2022-09-21T10:10:52.571Z,4.319840431
2022-09-21T10:11:55.284Z,5.570320129
2022-09-21T10:12:48.349Z,7.121240139
2022-09-21T10:13:51.269Z,6.187440395
2022-09-21T10:14:44.149Z,5.992560387
2022-09-21T10:16:21.910Z,-0.081200004
2022-09-21T10:17:02.312Z,6.828920364
2022-09-21T10:18:00.697Z,6.171200275
2022-09-21T10:18:58.575Z,5.424160004
2022-09-21T10:19:58.872Z,4.709600449
2022-09-21T10:20:54.303Z,5.148080349
2022-09-21T10:21:52.750Z,5.846400261
2022-09-21T10:22:50.302Z,5.237400055
2022-09-21T10:23:49.489Z,5.432280064
2022-09-21T10:24:46.321Z,5.757080078
2022-09-21T10:25:46.768Z,5.164319992
2022-09-21T10:26:42.415Z,4.344200134
2022-09-21T10:27:40.170Z,3.857000113
2022-09-21T10:28:40.143Z,3.751440048
2022-09-21T10:29:36.467Z,4.327960014
2022-09-21T10:30:34.998Z,3.759560108
2022-09-21T10:31:34.546Z,3.678360224
2022-09-21T10:32:30.002Z,3.467240095
2022-09-21T10:33:32.752Z,3.848880291
2022-09-21T10:34:25.759Z,3.434760094
2022-09-21T10:35:25.603Z,3.045000076
2022-09-21T10:36:20.815Z,3.223640203
2022-09-21T10:37:20.630Z,3.670240164
2022-09-21T10:38:19.818Z,3.369800091
2022-09-21T10:38:22.586Z,3.369800091
2022-09-21T10:39:15.945Z,3.629640102
2022-09-21T10:40:11.243Z,3.386040211
2022-09-21T10:41:13.640Z,3.223640203
2022-09-21T10:42:06.329Z,4.287360191
2022-09-21T10:43:06.128Z,3.540320158
2022-09-21T10:44:01.360Z,3.670240164
2022-09-21T10:45:01.489Z,3.913840294
2022-09-21T10:45:56.969Z,3.710840225
2022-09-21T10:47:51.976Z,3.572800159
2022-09-21T10:48:51.602Z,13.30868053
2022-09-21T10:58:42.595Z,-0.081200004
2022-09-21T11:35:37.061Z,0.535920024
2022-09-21T13:55:24.251Z,5.359200478
2022-09-21T13:56:22.414Z,2.273600101
2022-09-21T14:20:43.655Z,-0.081200004
2022-09-21T14:26:26.482Z,0.68208003
2022-09-21T14:45:44.573Z,0.349160016
2022-09-21T14:46:25.942Z,54.83436203
2022-09-21T14:47:25.788Z,1.429120064
2022-09-21T15:16:27.451Z,0.722680032
2022-09-21T15:17:25.551Z,0.738920033
2022-09-21T15:18:25.147Z,0.706440032
2022-09-21T15:19:20.309Z,0.714560032
2022-09-21T15:20:20.196Z,0.470960021
2022-09-21T15:21:14.529Z,0.755160034
2022-09-21T15:22:13.716Z,1.015000105
2022-09-21T15:23:07.761Z,0.45472002
2022-09-21T15:24:06.630Z,0.771400034
2022-09-21T15:25:01.151Z,0.600880027
2022-09-21T15:26:54.364Z,0.633360028
2022-09-21T15:27:53.049Z,0.706440032
2022-09-21T15:29:08.488Z,0.950040042
2022-09-21T15:29:08.754Z,0.950040042
2022-09-21T15:29:09.199Z,0.950040042
2022-09-21T15:29:46.754Z,0.925680041
2022-09-21T15:30:40.985Z,0.633360028
2022-09-21T15:31:42.200Z,0.600880027
2022-09-21T15:32:37.462Z,0.67396003
2022-09-21T15:33:34.934Z,0.503440022
2022-09-21T15:34:30.701Z,0.795760036
2022-09-21T15:35:27.093Z,0.592760026
2022-09-21T15:37:18.576Z,0.755160034
2022-09-21T15:38:15.160Z,0.852600038
2022-09-21T15:39:15.983Z,0.519680023
2022-09-21T15:40:06.763Z,0.68208003
2022-09-21T15:42:03.222Z,0.576520026
2022-09-21T15:42:54.573Z,0.479080021
2022-09-21T15:43:52.482Z,0.462840021
2022-09-21T15:44:45.425Z,0.600880027
2022-09-21T15:45:43.478Z,0.763280034
2022-09-21T15:46:37.894Z,0.66584003
2022-09-21T15:47:33.690Z,0.45472002
2022-09-21T15:48:32.381Z,0.519680023
2022-09-21T15:49:27.648Z,0.771400034
2022-09-21T15:50:22.308Z,0.66584003
2022-09-21T15:51:20.042Z,0.259840012
2022-09-21T15:52:13.919Z,0.479080021
2022-09-21T15:53:14.078Z,0.511560023
2022-09-21T15:54:05.542Z,0.527800024
2022-09-21T15:55:06.380Z,0.552160025
2022-09-21T15:56:58.418Z,0.527800024
2022-09-21T15:57:50.069Z,0.560280025
2022-09-21T15:58:45.005Z,0.430360019
2022-09-21T16:01:48.976Z,0.470960021
2022-09-21T16:02:49.072Z,0.470960021
2022-09-21T16:03:45.015Z,0.45472002
2022-09-21T16:04:46.626Z,0.487200022
2022-09-21T16:05:42.464Z,0.527800024
2022-09-21T16:06:43.295Z,0.568400025
2022-09-21T16:07:38.492Z,0.414120018
2022-09-21T16:08:40.944Z,0.519680023
2022-09-21T16:09:38.157Z,0.43848002
2022-09-21T16:11:34.276Z,0.479080021
2022-09-21T16:12:33.931Z,0.584640026
2022-09-21T16:13:29.307Z,0.357280016
2022-09-21T16:14:32.491Z,0.389760017
2022-09-21T16:15:27.849Z,0.44660002
2022-09-21T16:17:25.264Z,0.45472002
2022-09-21T16:18:26.578Z,0.45472002
2022-09-21T16:19:21.400Z,0.495320022
2022-09-21T16:20:23.956Z,0.414120018
2022-09-21T16:21:17.444Z,0.560280025
2022-09-21T16:22:19.660Z,0.341040015
2022-09-21T16:23:14.982Z,0.43848002
2022-09-21T16:24:15.291Z,0.470960021
2022-09-21T16:25:10.642Z,0.44660002
2022-09-21T16:26:09.846Z,0.389760017
2022-09-21T16:27:04.838Z,0.276080012
2022-09-21T16:28:04.929Z,0.276080012